sensor_id;sensor_type;location;lat;lon;timestamp;temperature;humidity
29775;DHT22;16676;51.202;6.774;2022-12-20T00:03:49;17.70;65.60
29775;DHT22;16676;51.202;6.774;2022-12-20T00:07:51;17.60;65.90
29775;DHT22;16676;51.202;6.774;2022-12-20T00:11:53;17.60;65.80
29775;DHT22;16676;51.202;6.774;2022-12-20T00:16:05;17.60;65.90
29775;DHT22;16676;51.202;6.774;2022-12-20T00:20:08;17.60;65.90
29775;DHT22;16676;51.202;6.774;2022-12-20T00:24:11;17.50;66.00
29775;DHT22;16676;51.202;6.774;2022-12-20T00:28:13;17.50;66.00
29775;DHT22;16676;51.202;6.774;2022-12-20T00:32:16;17.50;66.10
29775;DHT22;16676;51.202;6.774;2022-12-20T00:36:18;17.50;66.20
29775;DHT22;16676;51.202;6.774;2022-12-20T00:40:21;17.40;66.30
29775;DHT22;16676;51.202;6.774;2022-12-20T00:44:23;17.40;66.50
29775;DHT22;16676;51.202;6.774;2022-12-20T00:48:28;17.40;66.30
29775;DHT22;16676;51.202;6.774;2022-12-20T00:52:30;17.40;66.50
29775;DHT22;16676;51.202;6.774;2022-12-20T00:56:32;17.30;66.60
29775;DHT22;16676;51.202;6.774;2022-12-20T01:00:34;17.30;66.80
29775;DHT22;16676;51.202;6.774;2022-12-20T01:04:37;17.30;66.80
29775;DHT22;16676;51.202;6.774;2022-12-20T01:08:40;17.30;66.90
29775;DHT22;16676;51.202;6.774;2022-12-20T01:12:42;17.20;66.80
29775;DHT22;16676;51.202;6.774;2022-12-20T01:16:45;17.20;66.90
29775;DHT22;16676;51.202;6.774;2022-12-20T01:20:48;17.20;67.00
29775;DHT22;16676;51.202;6.774;2022-12-20T01:24:50;17.20;67.00
29775;DHT22;16676;51.202;6.774;2022-12-20T01:28:55;17.10;67.00
29775;DHT22;16676;51.202;6.774;2022-12-20T01:32:57;17.10;67.10
29775;DHT22;16676;51.202;6.774;2022-12-20T01:37:00;17.10;67.10
29775;DHT22;16676;51.202;6.774;2022-12-20T01:41:03;17.10;67.10
29775;DHT22;16676;51.202;6.774;2022-12-20T01:45:10;17.00;67.30
29775;DHT22;16676;51.202;6.774;2022-12-20T01:49:17;17.00;67.40
29775;DHT22;16676;51.202;6.774;2022-12-20T01:53:22;17.00;67.40
29775;DHT22;16676;51.202;6.774;2022-12-20T01:57:28;17.00;67.60
29775;DHT22;16676;51.202;6.774;2022-12-20T02:01:32;16.90;67.60
29775;DHT22;16676;51.202;6.774;2022-12-20T02:05:37;16.90;67.80
29775;DHT22;16676;51.202;6.774;2022-12-20T02:09:41;16.90;67.80
29775;DHT22;16676;51.202;6.774;2022-12-20T02:13:46;16.90;67.80
29775;DHT22;16676;51.202;6.774;2022-12-20T02:18:01;16.90;67.80
29775;DHT22;16676;51.202;6.774;2022-12-20T02:22:14;16.90;67.80
29775;DHT22;16676;51.202;6.774;2022-12-20T02:26:31;16.90;67.70
29775;DHT22;16676;51.202;6.774;2022-12-20T02:30:44;16.80;67.70
29775;DHT22;16676;51.202;6.774;2022-12-20T02:34:48;16.80;67.90
29775;DHT22;16676;51.202;6.774;2022-12-20T02:38:50;16.80;67.80
29775;DHT22;16676;51.202;6.774;2022-12-20T02:42:55;16.80;67.70
29775;DHT22;16676;51.202;6.774;2022-12-20T02:47:02;16.70;68.00
29775;DHT22;16676;51.202;6.774;2022-12-20T02:51:07;16.70;68.00
29775;DHT22;16676;51.202;6.774;2022-12-20T02:55:09;16.70;68.00
29775;DHT22;16676;51.202;6.774;2022-12-20T02:59:14;16.70;68.10
29775;DHT22;16676;51.202;6.774;2022-12-20T03:03:20;16.70;68.20
29775;DHT22;16676;51.202;6.774;2022-12-20T03:07:28;16.70;68.10
29775;DHT22;16676;51.202;6.774;2022-12-20T03:11:30;16.70;68.50
29775;DHT22;16676;51.202;6.774;2022-12-20T03:15:31;16.70;68.50
29775;DHT22;16676;51.202;6.774;2022-12-20T03:19:35;16.70;68.40
29775;DHT22;16676;51.202;6.774;2022-12-20T03:23:37;16.60;68.50
29775;DHT22;16676;51.202;6.774;2022-12-20T03:27:38;16.60;68.70
29775;DHT22;16676;51.202;6.774;2022-12-20T03:31:40;16.60;68.80
29775;DHT22;16676;51.202;6.774;2022-12-20T03:35:44;16.60;69.00
29775;DHT22;16676;51.202;6.774;2022-12-20T03:39:47;16.60;68.80
29775;DHT22;16676;51.202;6.774;2022-12-20T03:43:49;16.60;68.80
29775;DHT22;16676;51.202;6.774;2022-12-20T03:47:51;16.60;69.30
29775;DHT22;16676;51.202;6.774;2022-12-20T03:51:54;16.50;69.00
29775;DHT22;16676;51.202;6.774;2022-12-20T03:55:56;16.50;69.20
29775;DHT22;16676;51.202;6.774;2022-12-20T03:59:58;16.50;69.20
29775;DHT22;16676;51.202;6.774;2022-12-20T04:04:00;16.50;69.40
29775;DHT22;16676;51.202;6.774;2022-12-20T04:08:04;16.50;69.40
29775;DHT22;16676;51.202;6.774;2022-12-20T04:12:06;16.50;69.70
29775;DHT22;16676;51.202;6.774;2022-12-20T04:16:10;16.50;69.60
29775;DHT22;16676;51.202;6.774;2022-12-20T04:20:14;16.50;70.30
29775;DHT22;16676;51.202;6.774;2022-12-20T04:24:21;16.50;69.60
29775;DHT22;16676;51.202;6.774;2022-12-20T04:28:23;16.40;69.50
29775;DHT22;16676;51.202;6.774;2022-12-20T04:32:25;16.50;69.80
29775;DHT22;16676;51.202;6.774;2022-12-20T04:36:27;16.40;69.60
29775;DHT22;16676;51.202;6.774;2022-12-20T04:40:30;16.40;69.50
29775;DHT22;16676;51.202;6.774;2022-12-20T04:44:32;16.40;70.00
29775;DHT22;16676;51.202;6.774;2022-12-20T04:48:34;16.40;70.20
29775;DHT22;16676;51.202;6.774;2022-12-20T04:52:36;16.40;70.10
29775;DHT22;16676;51.202;6.774;2022-12-20T04:56:56;16.40;70.10
29775;DHT22;16676;51.202;6.774;2022-12-20T05:00:58;16.40;70.00
29775;DHT22;16676;51.202;6.774;2022-12-20T05:05:00;16.40;70.10
29775;DHT22;16676;51.202;6.774;2022-12-20T05:09:02;16.40;70.90
29775;DHT22;16676;51.202;6.774;2022-12-20T05:13:06;16.40;70.20
29775;DHT22;16676;51.202;6.774;2022-12-20T05:17:09;16.40;70.40
29775;DHT22;16676;51.202;6.774;2022-12-20T05:21:11;16.40;70.40
29775;DHT22;16676;51.202;6.774;2022-12-20T05:25:30;16.40;70.40
29775;DHT22;16676;51.202;6.774;2022-12-20T05:30:07;16.30;70.50
29775;DHT22;16676;51.202;6.774;2022-12-20T05:34:09;16.30;70.30
29775;DHT22;16676;51.202;6.774;2022-12-20T05:38:11;16.40;71.00
29775;DHT22;16676;51.202;6.774;2022-12-20T05:42:13;16.40;71.10
29775;DHT22;16676;51.202;6.774;2022-12-20T05:46:16;16.40;71.20
29775;DHT22;16676;51.202;6.774;2022-12-20T05:50:18;16.40;71.20
29775;DHT22;16676;51.202;6.774;2022-12-20T05:54:20;16.40;71.20
29775;DHT22;16676;51.202;6.774;2022-12-20T05:58:22;16.40;71.50
29775;DHT22;16676;51.202;6.774;2022-12-20T06:02:25;16.40;71.10
29775;DHT22;16676;51.202;6.774;2022-12-20T06:06:27;16.40;71.90
29775;DHT22;16676;51.202;6.774;2022-12-20T06:10:29;16.40;72.30
29775;DHT22;16676;51.202;6.774;2022-12-20T06:14:31;16.40;72.30
29775;DHT22;16676;51.202;6.774;2022-12-20T06:18:35;16.40;72.20
29775;DHT22;16676;51.202;6.774;2022-12-20T06:22:37;16.40;72.40
29775;DHT22;16676;51.202;6.774;2022-12-20T06:26:39;16.40;72.40
29775;DHT22;16676;51.202;6.774;2022-12-20T06:30:41;16.40;72.40
29775;DHT22;16676;51.202;6.774;2022-12-20T06:34:44;16.40;72.50
29775;DHT22;16676;51.202;6.774;2022-12-20T06:38:46;16.40;72.80
29775;DHT22;16676;51.202;6.774;2022-12-20T06:42:48;16.40;72.50
29775;DHT22;16676;51.202;6.774;2022-12-20T06:46:50;16.40;72.70
29775;DHT22;16676;51.202;6.774;2022-12-20T06:50:53;16.00;69.40
29775;DHT22;16676;51.202;6.774;2022-12-20T06:54:55;14.60;73.20
29775;DHT22;16676;51.202;6.774;2022-12-20T06:58:57;14.90;74.20
29775;DHT22;16676;51.202;6.774;2022-12-20T07:02:59;15.70;72.20
29775;DHT22;16676;51.202;6.774;2022-12-20T07:07:03;16.40;70.10
29775;DHT22;16676;51.202;6.774;2022-12-20T07:11:06;16.90;68.40
29775;DHT22;16676;51.202;6.774;2022-12-20T07:15:09;17.40;67.40
29775;DHT22;16676;51.202;6.774;2022-12-20T07:19:11;17.70;66.80
29775;DHT22;16676;51.202;6.774;2022-12-20T07:23:15;18.00;66.30
29775;DHT22;16676;51.202;6.774;2022-12-20T07:27:18;18.30;65.80
29775;DHT22;16676;51.202;6.774;2022-12-20T07:31:20;18.50;65.20
29775;DHT22;16676;51.202;6.774;2022-12-20T07:35:22;18.80;64.90
29775;DHT22;16676;51.202;6.774;2022-12-20T07:39:25;18.90;64.60
29775;DHT22;16676;51.202;6.774;2022-12-20T07:43:27;19.10;64.20
29775;DHT22;16676;51.202;6.774;2022-12-20T07:47:29;19.20;64.00
29775;DHT22;16676;51.202;6.774;2022-12-20T07:51:35;19.30;63.80
29775;DHT22;16676;51.202;6.774;2022-12-20T07:55:39;19.30;63.70
29775;DHT22;16676;51.202;6.774;2022-12-20T07:59:45;19.30;63.60
29775;DHT22;16676;51.202;6.774;2022-12-20T08:03:52;19.40;63.70
29775;DHT22;16676;51.202;6.774;2022-12-20T08:07:58;19.40;63.70
29775;DHT22;16676;51.202;6.774;2022-12-20T08:12:01;19.40;63.80
29775;DHT22;16676;51.202;6.774;2022-12-20T08:16:04;19.40;63.70
29775;DHT22;16676;51.202;6.774;2022-12-20T08:20:07;19.40;63.80
29775;DHT22;16676;51.202;6.774;2022-12-20T08:24:09;19.40;63.80
29775;DHT22;16676;51.202;6.774;2022-12-20T08:28:12;19.40;63.90
29775;DHT22;16676;51.202;6.774;2022-12-20T08:32:14;19.40;63.80
29775;DHT22;16676;51.202;6.774;2022-12-20T08:36:17;19.30;63.80
29775;DHT22;16676;51.202;6.774;2022-12-20T08:40:19;19.30;63.80
29775;DHT22;16676;51.202;6.774;2022-12-20T08:44:22;19.30;64.10
29775;DHT22;16676;51.202;6.774;2022-12-20T08:48:25;19.30;64.30
29775;DHT22;16676;51.202;6.774;2022-12-20T08:52:28;19.30;64.50
29775;DHT22;16676;51.202;6.774;2022-12-20T08:56:30;19.20;64.60
29775;DHT22;16676;51.202;6.774;2022-12-20T09:00:33;19.20;64.40
29775;DHT22;16676;51.202;6.774;2022-12-20T09:04:35;19.20;64.80
29775;DHT22;16676;51.202;6.774;2022-12-20T09:08:38;19.20;65.00
29775;DHT22;16676;51.202;6.774;2022-12-20T09:12:40;19.10;65.00
29775;DHT22;16676;51.202;6.774;2022-12-20T09:16:43;19.10;65.30
29775;DHT22;16676;51.202;6.774;2022-12-20T09:20:45;19.00;65.10
29775;DHT22;16676;51.202;6.774;2022-12-20T09:24:47;19.00;65.40
29775;DHT22;16676;51.202;6.774;2022-12-20T09:28:49;19.10;65.50
29775;DHT22;16676;51.202;6.774;2022-12-20T09:32:53;19.30;65.30
29775;DHT22;16676;51.202;6.774;2022-12-20T09:36:56;19.40;64.70
29775;DHT22;16676;51.202;6.774;2022-12-20T09:41:00;19.60;64.30
29775;DHT22;16676;51.202;6.774;2022-12-20T09:45:07;19.70;64.00
29775;DHT22;16676;51.202;6.774;2022-12-20T09:49:14;19.80;63.80
29775;DHT22;16676;51.202;6.774;2022-12-20T09:53:23;19.80;63.70
29775;DHT22;16676;51.202;6.774;2022-12-20T09:57:33;19.90;63.70
29775;DHT22;16676;51.202;6.774;2022-12-20T10:01:44;19.90;63.60
29775;DHT22;16676;51.202;6.774;2022-12-20T10:05:50;19.90;63.60
29775;DHT22;16676;51.202;6.774;2022-12-20T10:10:15;19.90;63.60
29775;DHT22;16676;51.202;6.774;2022-12-20T10:14:31;19.90;63.90
29775;DHT22;16676;51.202;6.774;2022-12-20T10:18:45;19.90;63.90
29775;DHT22;16676;51.202;6.774;2022-12-20T10:22:55;19.80;64.10
29775;DHT22;16676;51.202;6.774;2022-12-20T10:27:03;19.80;64.10
29775;DHT22;16676;51.202;6.774;2022-12-20T10:31:12;19.70;64.00
29775;DHT22;16676;51.202;6.774;2022-12-20T10:35:22;19.70;64.10
29775;DHT22;16676;51.202;6.774;2022-12-20T10:39:39;19.70;64.30
29775;DHT22;16676;51.202;6.774;2022-12-20T10:43:43;19.70;65.10
29775;DHT22;16676;51.202;6.774;2022-12-20T10:47:46;19.70;64.30
29775;DHT22;16676;51.202;6.774;2022-12-20T10:51:51;19.60;64.40
29775;DHT22;16676;51.202;6.774;2022-12-20T10:56:16;19.60;64.60
29775;DHT22;16676;51.202;6.774;2022-12-20T11:00:27;19.50;64.60
29775;DHT22;16676;51.202;6.774;2022-12-20T11:04:32;19.40;64.60
29775;DHT22;16676;51.202;6.774;2022-12-20T11:08:34;19.40;64.80
29775;DHT22;16676;51.202;6.774;2022-12-20T11:12:51;19.40;64.80
29775;DHT22;16676;51.202;6.774;2022-12-20T11:16:56;19.30;64.80
29775;DHT22;16676;51.202;6.774;2022-12-20T11:21:07;19.30;65.10
29775;DHT22;16676;51.202;6.774;2022-12-20T11:25:22;19.10;65.40
29775;DHT22;16676;51.202;6.774;2022-12-20T11:29:45;19.30;65.50
29775;DHT22;16676;51.202;6.774;2022-12-20T11:34:02;19.60;64.90
29775;DHT22;16676;51.202;6.774;2022-12-20T11:38:11;19.80;64.30
29775;DHT22;16676;51.202;6.774;2022-12-20T11:42:22;20.00;63.80
29775;DHT22;16676;51.202;6.774;2022-12-20T11:46:41;20.10;63.50
29775;DHT22;16676;51.202;6.774;2022-12-20T11:51:00;20.20;63.20
29775;DHT22;16676;51.202;6.774;2022-12-20T11:55:08;20.20;63.10
29775;DHT22;16676;51.202;6.774;2022-12-20T11:59:21;20.20;62.90
29775;DHT22;16676;51.202;6.774;2022-12-20T12:03:33;20.20;63.00
29775;DHT22;16676;51.202;6.774;2022-12-20T12:07:37;20.20;63.10
29775;DHT22;16676;51.202;6.774;2022-12-20T12:11:43;20.20;63.10
29775;DHT22;16676;51.202;6.774;2022-12-20T12:15:53;20.20;63.40
29775;DHT22;16676;51.202;6.774;2022-12-20T12:20:14;20.10;63.10
29775;DHT22;16676;51.202;6.774;2022-12-20T12:24:23;20.00;63.10
29775;DHT22;16676;51.202;6.774;2022-12-20T12:28:27;20.00;63.30
29775;DHT22;16676;51.202;6.774;2022-12-20T12:32:32;20.00;63.40
29775;DHT22;16676;51.202;6.774;2022-12-20T12:37:01;20.00;63.40
29775;DHT22;16676;51.202;6.774;2022-12-20T12:45:54;19.90;63.60
29775;DHT22;16676;51.202;6.774;2022-12-20T12:49:57;19.80;62.90
29775;DHT22;16676;51.202;6.774;2022-12-20T12:54:15;19.80;63.50
29775;DHT22;16676;51.202;6.774;2022-12-20T12:58:36;19.80;63.70
29775;DHT22;16676;51.202;6.774;2022-12-20T13:02:50;19.80;63.60
29775;DHT22;16676;51.202;6.774;2022-12-20T13:07:00;19.80;63.60
29775;DHT22;16676;51.202;6.774;2022-12-20T13:11:11;19.70;63.70
29775;DHT22;16676;51.202;6.774;2022-12-20T13:16:04;19.80;64.10
29775;DHT22;16676;51.202;6.774;2022-12-20T13:20:16;19.70;64.30
29775;DHT22;16676;51.202;6.774;2022-12-20T13:24:37;19.70;64.90
29775;DHT22;16676;51.202;6.774;2022-12-20T13:28:46;19.70;65.30
29775;DHT22;16676;51.202;6.774;2022-12-20T13:37:27;19.60;65.80
29775;DHT22;16676;51.202;6.774;2022-12-20T13:41:33;19.60;66.00
29775;DHT22;16676;51.202;6.774;2022-12-20T13:45:38;19.70;66.10
29775;DHT22;16676;51.202;6.774;2022-12-20T13:49:42;19.80;66.10
29775;DHT22;16676;51.202;6.774;2022-12-20T13:53:50;19.90;66.30
29775;DHT22;16676;51.202;6.774;2022-12-20T13:57:53;19.90;66.00
29775;DHT22;16676;51.202;6.774;2022-12-20T14:01:59;19.90;66.10
29775;DHT22;16676;51.202;6.774;2022-12-20T14:06:03;20.00;66.00
29775;DHT22;16676;51.202;6.774;2022-12-20T14:10:17;20.00;66.10
29775;DHT22;16676;51.202;6.774;2022-12-20T14:14:20;20.00;66.00
29775;DHT22;16676;51.202;6.774;2022-12-20T14:18:24;20.00;66.10
29775;DHT22;16676;51.202;6.774;2022-12-20T14:22:26;20.10;66.10
29775;DHT22;16676;51.202;6.774;2022-12-20T14:26:31;20.00;66.10
29775;DHT22;16676;51.202;6.774;2022-12-20T14:30:41;20.00;66.20
29775;DHT22;16676;51.202;6.774;2022-12-20T14:34:45;20.00;66.40
29775;DHT22;16676;51.202;6.774;2022-12-20T14:38:49;20.00;66.40
29775;DHT22;16676;51.202;6.774;2022-12-20T14:42:51;19.90;66.50
29775;DHT22;16676;51.202;6.774;2022-12-20T14:46:55;19.90;66.60
29775;DHT22;16676;51.202;6.774;2022-12-20T14:50:58;19.90;66.60
29775;DHT22;16676;51.202;6.774;2022-12-20T14:55:03;19.90;66.80
29775;DHT22;16676;51.202;6.774;2022-12-20T14:59:13;19.90;66.90
29775;DHT22;16676;51.202;6.774;2022-12-20T15:03:16;19.80;66.80
29775;DHT22;16676;51.202;6.774;2022-12-20T15:07:29;19.90;67.00
29775;DHT22;16676;51.202;6.774;2022-12-20T15:11:33;19.70;67.00
29775;DHT22;16676;51.202;6.774;2022-12-20T15:15:36;19.60;68.10
29775;DHT22;16676;51.202;6.774;2022-12-20T15:19:38;19.40;68.50
29775;DHT22;16676;51.202;6.774;2022-12-20T15:23:44;19.40;68.70
29775;DHT22;16676;51.202;6.774;2022-12-20T15:27:47;19.30;68.60
29775;DHT22;16676;51.202;6.774;2022-12-20T15:31:50;19.40;68.10
29775;DHT22;16676;51.202;6.774;2022-12-20T15:35:53;19.60;67.80
29775;DHT22;16676;51.202;6.774;2022-12-20T15:39:56;19.70;67.60
29775;DHT22;16676;51.202;6.774;2022-12-20T15:44:00;19.80;68.10
29775;DHT22;16676;51.202;6.774;2022-12-20T15:48:04;19.90;67.10
29775;DHT22;16676;51.202;6.774;2022-12-20T15:52:11;20.10;66.60
29775;DHT22;16676;51.202;6.774;2022-12-20T15:56:20;20.20;66.40
29775;DHT22;16676;51.202;6.774;2022-12-20T16:00:22;20.00;63.20
29775;DHT22;16676;51.202;6.774;2022-12-20T16:04:25;19.90;62.70
29775;DHT22;16676;51.202;6.774;2022-12-20T16:08:28;19.70;62.50
29775;DHT22;16676;51.202;6.774;2022-12-20T16:12:33;19.70;63.20
29775;DHT22;16676;51.202;6.774;2022-12-20T16:16:36;19.80;64.00
29775;DHT22;16676;51.202;6.774;2022-12-20T16:20:38;19.90;64.50
29775;DHT22;16676;51.202;6.774;2022-12-20T16:24:40;19.90;65.40
29775;DHT22;16676;51.202;6.774;2022-12-20T16:28:44;20.00;66.30
29775;DHT22;16676;51.202;6.774;2022-12-20T16:32:47;20.00;67.80
29775;DHT22;16676;51.202;6.774;2022-12-20T16:36:50;20.00;69.50
29775;DHT22;16676;51.202;6.774;2022-12-20T16:40:52;20.00;71.50
29775;DHT22;16676;51.202;6.774;2022-12-20T16:44:55;20.00;72.40
29775;DHT22;16676;51.202;6.774;2022-12-20T16:48:59;20.00;74.50
29775;DHT22;16676;51.202;6.774;2022-12-20T16:53:01;20.00;76.20
29775;DHT22;16676;51.202;6.774;2022-12-20T16:57:03;20.20;76.40
29775;DHT22;16676;51.202;6.774;2022-12-20T17:01:09;20.20;74.20
29775;DHT22;16676;51.202;6.774;2022-12-20T17:05:24;20.10;72.80
29775;DHT22;16676;51.202;6.774;2022-12-20T17:09:27;20.10;71.60
29775;DHT22;16676;51.202;6.774;2022-12-20T17:13:28;20.00;71.20
29775;DHT22;16676;51.202;6.774;2022-12-20T17:17:32;20.00;70.80
29775;DHT22;16676;51.202;6.774;2022-12-20T17:21:35;19.90;70.50
29775;DHT22;16676;51.202;6.774;2022-12-20T17:25:38;19.80;70.50
29775;DHT22;16676;51.202;6.774;2022-12-20T17:29:40;19.80;70.80
29775;DHT22;16676;51.202;6.774;2022-12-20T17:33:43;19.70;71.70
29775;DHT22;16676;51.202;6.774;2022-12-20T17:37:45;19.60;74.30
29775;DHT22;16676;51.202;6.774;2022-12-20T17:41:47;19.70;74.20
29775;DHT22;16676;51.202;6.774;2022-12-20T17:45:50;19.70;72.90
29775;DHT22;16676;51.202;6.774;2022-12-20T17:49:53;19.70;72.30
29775;DHT22;16676;51.202;6.774;2022-12-20T17:53:56;19.70;72.00
29775;DHT22;16676;51.202;6.774;2022-12-20T17:57:59;19.70;71.60
29775;DHT22;16676;51.202;6.774;2022-12-20T18:02:00;19.60;71.30
29775;DHT22;16676;51.202;6.774;2022-12-20T18:06:06;19.60;71.20
29775;DHT22;16676;51.202;6.774;2022-12-20T18:10:09;19.50;71.10
29775;DHT22;16676;51.202;6.774;2022-12-20T18:14:11;19.50;71.10
29775;DHT22;16676;51.202;6.774;2022-12-20T18:18:13;19.50;70.40
29775;DHT22;16676;51.202;6.774;2022-12-20T18:22:17;19.30;67.70
29775;DHT22;16676;51.202;6.774;2022-12-20T18:26:22;18.90;64.90
29775;DHT22;16676;51.202;6.774;2022-12-20T18:30:24;18.10;66.60
29775;DHT22;16676;51.202;6.774;2022-12-20T18:34:26;17.30;68.40
29775;DHT22;16676;51.202;6.774;2022-12-20T18:38:29;17.10;69.30
29775;DHT22;16676;51.202;6.774;2022-12-20T18:42:31;17.60;69.20
29775;DHT22;16676;51.202;6.774;2022-12-20T18:46:33;18.00;67.80
29775;DHT22;16676;51.202;6.774;2022-12-20T18:50:35;18.30;67.40
29775;DHT22;16676;51.202;6.774;2022-12-20T18:54:39;18.40;67.30
29775;DHT22;16676;51.202;6.774;2022-12-20T18:58:42;18.50;67.40
29775;DHT22;16676;51.202;6.774;2022-12-20T19:02:44;18.50;67.40
29775;DHT22;16676;51.202;6.774;2022-12-20T19:06:46;18.60;67.50
29775;DHT22;16676;51.202;6.774;2022-12-20T19:10:49;18.50;67.60
29775;DHT22;16676;51.202;6.774;2022-12-20T19:14:51;18.60;67.80
29775;DHT22;16676;51.202;6.774;2022-12-20T19:18:53;18.60;67.80
29775;DHT22;16676;51.202;6.774;2022-12-20T19:22:56;18.50;67.90
29775;DHT22;16676;51.202;6.774;2022-12-20T19:26:59;18.60;68.00
29775;DHT22;16676;51.202;6.774;2022-12-20T19:31:05;18.50;68.10
29775;DHT22;16676;51.202;6.774;2022-12-20T19:35:07;18.50;68.10
29775;DHT22;16676;51.202;6.774;2022-12-20T19:39:13;18.50;68.30
29775;DHT22;16676;51.202;6.774;2022-12-20T19:43:17;18.50;68.40
29775;DHT22;16676;51.202;6.774;2022-12-20T19:47:19;18.50;68.40
29775;DHT22;16676;51.202;6.774;2022-12-20T19:51:21;18.50;68.40
29775;DHT22;16676;51.202;6.774;2022-12-20T19:55:23;18.50;68.50
29775;DHT22;16676;51.202;6.774;2022-12-20T19:59:28;18.40;68.50
29775;DHT22;16676;51.202;6.774;2022-12-20T20:03:30;18.40;68.90
29775;DHT22;16676;51.202;6.774;2022-12-20T20:07:33;18.40;68.70
29775;DHT22;16676;51.202;6.774;2022-12-20T20:11:35;18.40;69.00
29775;DHT22;16676;51.202;6.774;2022-12-20T20:15:38;18.30;68.90
29775;DHT22;16676;51.202;6.774;2022-12-20T20:19:40;18.40;68.80
29775;DHT22;16676;51.202;6.774;2022-12-20T20:23:42;18.30;69.10
29775;DHT22;16676;51.202;6.774;2022-12-20T20:27:44;18.30;69.10
29775;DHT22;16676;51.202;6.774;2022-12-20T20:31:48;18.30;69.10
29775;DHT22;16676;51.202;6.774;2022-12-20T20:35:53;18.20;69.40
29775;DHT22;16676;51.202;6.774;2022-12-20T20:39:55;18.20;69.60
29775;DHT22;16676;51.202;6.774;2022-12-20T20:43:57;18.20;69.80
29775;DHT22;16676;51.202;6.774;2022-12-20T20:48:00;18.20;69.90
29775;DHT22;16676;51.202;6.774;2022-12-20T20:52:03;18.20;70.00
29775;DHT22;16676;51.202;6.774;2022-12-20T20:56:05;18.10;70.10
29775;DHT22;16676;51.202;6.774;2022-12-20T21:00:09;18.10;70.30
29775;DHT22;16676;51.202;6.774;2022-12-20T21:04:12;18.10;70.30
29775;DHT22;16676;51.202;6.774;2022-12-20T21:08:15;18.10;70.60
29775;DHT22;16676;51.202;6.774;2022-12-20T21:12:17;17.90;71.40
29775;DHT22;16676;51.202;6.774;2022-12-20T21:16:19;17.80;73.90
29775;DHT22;16676;51.202;6.774;2022-12-20T21:20:23;17.80;74.60
29775;DHT22;16676;51.202;6.774;2022-12-20T21:24:25;17.80;74.90
29775;DHT22;16676;51.202;6.774;2022-12-20T21:28:27;17.80;74.90
29775;DHT22;16676;51.202;6.774;2022-12-20T21:32:29;17.80;75.10
29775;DHT22;16676;51.202;6.774;2022-12-20T21:36:32;17.80;74.80
29775;DHT22;16676;51.202;6.774;2022-12-20T21:40:35;17.80;74.90
29775;DHT22;16676;51.202;6.774;2022-12-20T21:44:37;17.80;75.20
29775;DHT22;16676;51.202;6.774;2022-12-20T21:48:40;17.80;74.60
29775;DHT22;16676;51.202;6.774;2022-12-20T21:52:44;17.80;74.60
29775;DHT22;16676;51.202;6.774;2022-12-20T21:56:46;17.80;74.60
29775;DHT22;16676;51.202;6.774;2022-12-20T22:00:48;17.80;74.40
29775;DHT22;16676;51.202;6.774;2022-12-20T22:04:50;17.80;74.80
29775;DHT22;16676;51.202;6.774;2022-12-20T22:08:53;17.80;74.50
29775;DHT22;16676;51.202;6.774;2022-12-20T22:12:55;17.80;74.00
29775;DHT22;16676;51.202;6.774;2022-12-20T22:16:57;17.80;74.50
29775;DHT22;16676;51.202;6.774;2022-12-20T22:21:01;17.80;74.70
29775;DHT22;16676;51.202;6.774;2022-12-20T22:25:05;17.80;74.70
29775;DHT22;16676;51.202;6.774;2022-12-20T22:29:08;17.70;74.20
29775;DHT22;16676;51.202;6.774;2022-12-20T22:33:10;17.70;73.90
29775;DHT22;16676;51.202;6.774;2022-12-20T22:37:12;17.70;74.20
29775;DHT22;16676;51.202;6.774;2022-12-20T22:41:16;17.70;74.20
29775;DHT22;16676;51.202;6.774;2022-12-20T22:45:19;17.70;74.30
29775;DHT22;16676;51.202;6.774;2022-12-20T22:49:21;17.70;74.10
29775;DHT22;16676;51.202;6.774;2022-12-20T22:53:23;17.80;74.00
29775;DHT22;16676;51.202;6.774;2022-12-20T22:57:26;17.80;74.40
29775;DHT22;16676;51.202;6.774;2022-12-20T23:01:28;17.70;74.10
29775;DHT22;16676;51.202;6.774;2022-12-20T23:05:30;17.70;74.30
29775;DHT22;16676;51.202;6.774;2022-12-20T23:09:32;17.70;74.10
29775;DHT22;16676;51.202;6.774;2022-12-20T23:13:37;17.70;74.30
29775;DHT22;16676;51.202;6.774;2022-12-20T23:17:56;17.70;74.50
29775;DHT22;16676;51.202;6.774;2022-12-20T23:21:58;17.70;74.70
29775;DHT22;16676;51.202;6.774;2022-12-20T23:26:18;17.70;74.40
29775;DHT22;16676;51.202;6.774;2022-12-20T23:30:22;17.60;74.60
29775;DHT22;16676;51.202;6.774;2022-12-20T23:34:24;17.70;74.90
29775;DHT22;16676;51.202;6.774;2022-12-20T23:38:26;17.60;75.00
29775;DHT22;16676;51.202;6.774;2022-12-20T23:42:31;17.60;74.80
29775;DHT22;16676;51.202;6.774;2022-12-20T23:46:34;17.60;75.10
29775;DHT22;16676;51.202;6.774;2022-12-20T23:50:37;17.60;75.10
29775;DHT22;16676;51.202;6.774;2022-12-20T23:54:39;17.60;74.90
29775;DHT22;16676;51.202;6.774;2022-12-20T23:58:42;17.60;75.30
